sensor_id;sensor_type;location;lat;lon;timestamp;pressure;altitude;pressure_sealevel;temperature;humidity
10978;BME280;5542;48.272;10.794;2023-04-09T00:00:41;96307.84;;;5.53;78.90
10978;BME280;5542;48.272;10.794;2023-04-09T00:03:08;96309.47;;;5.54;78.73
10978;BME280;5542;48.272;10.794;2023-04-09T00:05:38;96305.72;;;5.42;79.36
10978;BME280;5542;48.272;10.794;2023-04-09T00:08:05;96311.09;;;5.40;79.49
10978;BME280;5542;48.272;10.794;2023-04-09T00:10:31;96305.06;;;5.40;79.57
10978;BME280;5542;48.272;10.794;2023-04-09T00:12:59;96308.47;;;5.40;79.75
10978;BME280;5542;48.272;10.794;2023-04-09T00:15:26;96308.94;;;5.44;79.58
10978;BME280;5542;48.272;10.794;2023-04-09T00:17:52;96303.53;;;5.46;79.44
10978;BME280;5542;48.272;10.794;2023-04-09T00:20:20;96301.22;;;5.51;79.40
10978;BME280;5542;48.272;10.794;2023-04-09T00:22:47;96297.59;;;5.52;79.42
10978;BME280;5542;48.272;10.794;2023-04-09T00:25:14;96298.59;;;5.51;79.32
10978;BME280;5542;48.272;10.794;2023-04-09T00:27:40;96300.38;;;5.50;79.32
10978;BME280;5542;48.272;10.794;2023-04-09T00:30:09;96293.38;;;5.51;79.18
10978;BME280;5542;48.272;10.794;2023-04-09T00:32:36;96296.78;;;5.51;79.00
10978;BME280;5542;48.272;10.794;2023-04-09T00:35:03;96290.78;;;5.51;79.10
10978;BME280;5542;48.272;10.794;2023-04-09T00:37:29;96294.59;;;5.55;78.83
10978;BME280;5542;48.272;10.794;2023-04-09T00:39:56;96295.41;;;5.55;78.80
10978;BME280;5542;48.272;10.794;2023-04-09T00:42:22;96291.03;;;5.56;78.65
10978;BME280;5542;48.272;10.794;2023-04-09T00:44:49;96295.06;;;5.58;78.52
10978;BME280;5542;48.272;10.794;2023-04-09T00:47:17;96302.88;;;5.58;78.56
10978;BME280;5542;48.272;10.794;2023-04-09T00:49:43;96291.38;;;5.53;78.60
10978;BME280;5542;48.272;10.794;2023-04-09T00:52:10;96292.47;;;5.44;79.04
10978;BME280;5542;48.272;10.794;2023-04-09T00:54:37;96300.13;;;5.30;80.05
10978;BME280;5542;48.272;10.794;2023-04-09T00:57:03;96301.47;;;5.26;80.38
10978;BME280;5542;48.272;10.794;2023-04-09T00:59:30;96298.88;;;5.26;80.50
10978;BME280;5542;48.272;10.794;2023-04-09T01:01:57;96304.63;;;5.22;80.84
10978;BME280;5542;48.272;10.794;2023-04-09T01:04:25;96308.06;;;5.22;81.27
10978;BME280;5542;48.272;10.794;2023-04-09T01:06:54;96305.47;;;5.22;81.19
10978;BME280;5542;48.272;10.794;2023-04-09T01:09:27;96301.84;;;5.23;81.02
10978;BME280;5542;48.272;10.794;2023-04-09T01:12:02;96289.44;;;5.25;81.41
10978;BME280;5542;48.272;10.794;2023-04-09T01:14:35;96294.47;;;5.27;81.40
10978;BME280;5542;48.272;10.794;2023-04-09T01:17:05;96298.50;;;5.29;81.16
10978;BME280;5542;48.272;10.794;2023-04-09T01:19:46;96289.06;;;5.28;81.33
10978;BME280;5542;48.272;10.794;2023-04-09T01:22:23;96293.50;;;5.28;81.33
10978;BME280;5542;48.272;10.794;2023-04-09T01:25:01;96292.84;;;5.26;81.20
10978;BME280;5542;48.272;10.794;2023-04-09T01:27:36;96295.91;;;5.29;81.35
10978;BME280;5542;48.272;10.794;2023-04-09T01:30:06;96292.97;;;5.18;81.62
10978;BME280;5542;48.272;10.794;2023-04-09T01:32:34;96297.19;;;5.19;81.85
10978;BME280;5542;48.272;10.794;2023-04-09T01:35:03;96299.59;;;5.20;81.88
10978;BME280;5542;48.272;10.794;2023-04-09T01:37:31;96302.00;;;5.22;81.67
10978;BME280;5542;48.272;10.794;2023-04-09T01:39:58;96294.66;;;5.25;81.86
10978;BME280;5542;48.272;10.794;2023-04-09T01:42:26;96300.50;;;5.27;81.50
10978;BME280;5542;48.272;10.794;2023-04-09T01:44:53;96294.91;;;5.30;81.23
10978;BME280;5542;48.272;10.794;2023-04-09T01:47:22;96298.31;;;5.31;81.18
10978;BME280;5542;48.272;10.794;2023-04-09T01:49:49;96302.72;;;5.30;81.11
10978;BME280;5542;48.272;10.794;2023-04-09T01:52:16;96307.50;;;5.27;81.28
10978;BME280;5542;48.272;10.794;2023-04-09T01:54:43;96299.31;;;5.15;81.64
10978;BME280;5542;48.272;10.794;2023-04-09T01:57:09;96302.94;;;5.14;81.85
10978;BME280;5542;48.272;10.794;2023-04-09T01:59:36;96305.34;;;5.16;81.93
10978;BME280;5542;48.272;10.794;2023-04-09T02:02:06;96301.75;;;5.17;81.94
10978;BME280;5542;48.272;10.794;2023-04-09T02:04:39;96298.78;;;5.20;81.91
10978;BME280;5542;48.272;10.794;2023-04-09T02:07:09;96302.19;;;5.20;81.89
10978;BME280;5542;48.272;10.794;2023-04-09T02:09:39;96299.41;;;5.22;81.75
10978;BME280;5542;48.272;10.794;2023-04-09T02:12:11;96292.22;;;5.24;81.65
10978;BME280;5542;48.272;10.794;2023-04-09T02:14:39;96300.50;;;5.27;81.69
10978;BME280;5542;48.272;10.794;2023-04-09T02:17:06;96295.91;;;5.29;81.41
10978;BME280;5542;48.272;10.794;2023-04-09T02:19:41;96293.31;;;5.29;81.38
10978;BME280;5542;48.272;10.794;2023-04-09T02:22:09;96292.31;;;5.30;81.55
10978;BME280;5542;48.272;10.794;2023-04-09T02:24:36;96290.69;;;5.29;81.40
10978;BME280;5542;48.272;10.794;2023-04-09T02:27:03;96285.47;;;5.29;80.88
10978;BME280;5542;48.272;10.794;2023-04-09T02:29:30;96286.28;;;5.30;81.01
10978;BME280;5542;48.272;10.794;2023-04-09T02:31:57;96287.72;;;5.32;80.64
10978;BME280;5542;48.272;10.794;2023-04-09T02:34:23;96289.34;;;5.33;80.76
10978;BME280;5542;48.272;10.794;2023-04-09T02:36:52;96295.38;;;5.34;80.79
10978;BME280;5542;48.272;10.794;2023-04-09T02:39:18;96293.75;;;5.33;80.68
10978;BME280;5542;48.272;10.794;2023-04-09T02:41:45;96292.56;;;5.35;80.51
10978;BME280;5542;48.272;10.794;2023-04-09T02:44:13;96301.56;;;5.33;80.56
10978;BME280;5542;48.272;10.794;2023-04-09T02:46:40;96302.19;;;5.35;80.67
10978;BME280;5542;48.272;10.794;2023-04-09T02:49:07;96295.16;;;5.35;80.74
10978;BME280;5542;48.272;10.794;2023-04-09T02:51:33;96291.59;;;5.36;80.88
10978;BME280;5542;48.272;10.794;2023-04-09T02:54:02;96297.78;;;5.35;80.76
10978;BME280;5542;48.272;10.794;2023-04-09T02:56:28;96300.59;;;5.34;81.07
10978;BME280;5542;48.272;10.794;2023-04-09T02:58:55;96290.16;;;5.34;81.04
10978;BME280;5542;48.272;10.794;2023-04-09T03:01:22;96292.56;;;5.35;81.29
10978;BME280;5542;48.272;10.794;2023-04-09T03:03:48;96284.84;;;5.27;81.80
10978;BME280;5542;48.272;10.794;2023-04-09T03:06:15;96288.97;;;5.22;82.38
10978;BME280;5542;48.272;10.794;2023-04-09T03:08:42;96290.44;;;5.24;82.65
10978;BME280;5542;48.272;10.794;2023-04-09T03:11:10;96285.13;;;5.18;83.12
10978;BME280;5542;48.272;10.794;2023-04-09T03:13:37;96284.94;;;5.04;85.22
10978;BME280;5542;48.272;10.794;2023-04-09T03:16:04;96281.69;;;5.02;85.29
10978;BME280;5542;48.272;10.794;2023-04-09T03:18:31;96286.38;;;5.07;85.28
10978;BME280;5542;48.272;10.794;2023-04-09T03:21:03;96282.97;;;5.06;85.31
10978;BME280;5542;48.272;10.794;2023-04-09T03:23:30;96279.91;;;5.03;85.59
10978;BME280;5542;48.272;10.794;2023-04-09T03:26:00;96268.22;;;4.99;85.94
10978;BME280;5542;48.272;10.794;2023-04-09T03:28:28;96269.03;;;4.99;86.20
10978;BME280;5542;48.272;10.794;2023-04-09T03:30:54;96268.31;;;5.05;86.21
10978;BME280;5542;48.272;10.794;2023-04-09T03:33:21;96264.09;;;5.04;85.92
10978;BME280;5542;48.272;10.794;2023-04-09T03:35:48;96277.13;;;5.04;86.13
10978;BME280;5542;48.272;10.794;2023-04-09T03:38:14;96274.53;;;5.04;86.39
10978;BME280;5542;48.272;10.794;2023-04-09T03:40:41;96276.13;;;5.05;86.18
10978;BME280;5542;48.272;10.794;2023-04-09T03:43:07;96261.84;;;5.01;86.52
10978;BME280;5542;48.272;10.794;2023-04-09T03:45:35;96272.06;;;5.03;86.68
10978;BME280;5542;48.272;10.794;2023-04-09T03:48:02;96263.91;;;5.06;86.55
10978;BME280;5542;48.272;10.794;2023-04-09T03:50:29;96268.94;;;5.07;86.52
10978;BME280;5542;48.272;10.794;2023-04-09T03:52:55;96271.91;;;5.04;86.66
10978;BME280;5542;48.272;10.794;2023-04-09T03:55:22;96259.50;;;5.06;86.57
10978;BME280;5542;48.272;10.794;2023-04-09T03:57:49;96261.75;;;5.09;86.41
10978;BME280;5542;48.272;10.794;2023-04-09T04:00:16;96261.38;;;5.12;86.27
10978;BME280;5542;48.272;10.794;2023-04-09T04:02:44;96262.22;;;5.13;86.14
10978;BME280;5542;48.272;10.794;2023-04-09T04:05:10;96258.22;;;5.17;85.69
10978;BME280;5542;48.272;10.794;2023-04-09T04:07:37;96267.03;;;5.16;85.43
10978;BME280;5542;48.272;10.794;2023-04-09T04:10:04;96263.63;;;5.16;85.30
10978;BME280;5542;48.272;10.794;2023-04-09T04:12:31;96271.25;;;5.17;85.13
10978;BME280;5542;48.272;10.794;2023-04-09T04:14:58;96273.88;;;5.17;84.86
10978;BME280;5542;48.272;10.794;2023-04-09T04:17:24;96272.91;;;5.18;84.69
10978;BME280;5542;48.272;10.794;2023-04-09T04:19:52;96264.88;;;5.20;84.39
10978;BME280;5542;48.272;10.794;2023-04-09T04:22:19;96272.53;;;5.21;84.18
10978;BME280;5542;48.272;10.794;2023-04-09T04:24:45;96276.94;;;5.21;84.13
10978;BME280;5542;48.272;10.794;2023-04-09T04:27:12;96274.88;;;5.16;84.10
10978;BME280;5542;48.272;10.794;2023-04-09T04:29:38;96271.63;;;5.14;84.14
10978;BME280;5542;48.272;10.794;2023-04-09T04:32:05;96272.91;;;5.18;83.92
10978;BME280;5542;48.272;10.794;2023-04-09T04:34:32;96278.72;;;5.20;83.76
10978;BME280;5542;48.272;10.794;2023-04-09T04:37:00;96277.75;;;5.21;83.56
10978;BME280;5542;48.272;10.794;2023-04-09T04:39:26;96277.13;;;5.19;83.60
10978;BME280;5542;48.272;10.794;2023-04-09T04:41:53;96281.69;;;5.17;83.53
10978;BME280;5542;48.272;10.794;2023-04-09T04:44:19;96277.47;;;5.16;83.57
10978;BME280;5542;48.272;10.794;2023-04-09T04:46:46;96276.47;;;5.17;83.42
10978;BME280;5542;48.272;10.794;2023-04-09T04:49:13;96281.06;;;5.15;83.42
10978;BME280;5542;48.272;10.794;2023-04-09T04:51:39;96281.06;;;5.15;83.60
10978;BME280;5542;48.272;10.794;2023-04-09T04:54:07;96284.84;;;5.12;83.31
10978;BME280;5542;48.272;10.794;2023-04-09T04:56:34;96290.34;;;5.18;82.89
10978;BME280;5542;48.272;10.794;2023-04-09T04:59:00;96285.75;;;5.20;82.77
10978;BME280;5542;48.272;10.794;2023-04-09T05:01:27;96278.13;;;5.18;82.87
10978;BME280;5542;48.272;10.794;2023-04-09T05:03:54;96284.94;;;5.19;82.72
10978;BME280;5542;48.272;10.794;2023-04-09T05:06:20;96293.75;;;5.18;82.88
10978;BME280;5542;48.272;10.794;2023-04-09T05:08:47;96287.56;;;5.19;82.89
10978;BME280;5542;48.272;10.794;2023-04-09T05:11:15;96298.44;;;5.23;83.04
10978;BME280;5542;48.272;10.794;2023-04-09T05:13:41;96299.13;;;5.31;82.80
10978;BME280;5542;48.272;10.794;2023-04-09T05:16:14;96309.28;;;5.26;83.16
10978;BME280;5542;48.272;10.794;2023-04-09T05:18:41;96319.13;;;5.24;84.47
10978;BME280;5542;48.272;10.794;2023-04-09T05:21:08;96315.84;;;5.07;85.47
10978;BME280;5542;48.272;10.794;2023-04-09T05:23:34;96320.06;;;4.79;87.11
10978;BME280;5542;48.272;10.794;2023-04-09T05:26:01;96325.41;;;4.62;88.73
10978;BME280;5542;48.272;10.794;2023-04-09T05:28:29;96331.97;;;4.58;90.70
10978;BME280;5542;48.272;10.794;2023-04-09T05:30:55;96323.94;;;4.45;92.31
10978;BME280;5542;48.272;10.794;2023-04-09T05:33:22;96322.22;;;4.38;92.78
10978;BME280;5542;48.272;10.794;2023-04-09T05:35:49;96326.19;;;4.48;93.29
10978;BME280;5542;48.272;10.794;2023-04-09T05:38:15;96327.19;;;4.47;93.80
10978;BME280;5542;48.272;10.794;2023-04-09T05:40:42;96326.66;;;4.52;94.07
10978;BME280;5542;48.272;10.794;2023-04-09T05:43:10;96329.09;;;4.30;94.77
10978;BME280;5542;48.272;10.794;2023-04-09T05:45:38;96334.34;;;4.22;95.91
10978;BME280;5542;48.272;10.794;2023-04-09T05:48:05;96332.72;;;4.21;97.09
10978;BME280;5542;48.272;10.794;2023-04-09T05:50:31;96329.25;;;4.52;95.53
10978;BME280;5542;48.272;10.794;2023-04-09T05:52:58;96329.66;;;4.41;96.63
10978;BME280;5542;48.272;10.794;2023-04-09T05:55:24;96329.59;;;4.49;97.07
10978;BME280;5542;48.272;10.794;2023-04-09T05:57:51;96332.19;;;4.72;95.77
10978;BME280;5542;48.272;10.794;2023-04-09T06:00:18;96333.97;;;4.71;95.20
10978;BME280;5542;48.272;10.794;2023-04-09T06:02:47;96329.25;;;4.90;94.05
10978;BME280;5542;48.272;10.794;2023-04-09T06:05:13;96336.59;;;4.71;93.06
10978;BME280;5542;48.272;10.794;2023-04-09T06:07:40;96332.81;;;4.74;93.27
10978;BME280;5542;48.272;10.794;2023-04-09T06:10:07;96334.53;;;4.81;93.36
10978;BME280;5542;48.272;10.794;2023-04-09T06:12:34;96336.69;;;4.93;94.27
10978;BME280;5542;48.272;10.794;2023-04-09T06:15:01;96336.63;;;5.16;93.93
10978;BME280;5542;48.272;10.794;2023-04-09T06:17:28;96338.09;;;5.33;93.96
10978;BME280;5542;48.272;10.794;2023-04-09T06:19:55;96343.31;;;5.48;90.55
10978;BME280;5542;48.272;10.794;2023-04-09T06:22:22;96339.44;;;5.44;89.02
10978;BME280;5542;48.272;10.794;2023-04-09T06:24:49;96347.88;;;5.46;88.01
10978;BME280;5542;48.272;10.794;2023-04-09T06:27:15;96344.47;;;5.45;89.10
10978;BME280;5542;48.272;10.794;2023-04-09T06:29:43;96343.91;;;5.64;90.91
10978;BME280;5542;48.272;10.794;2023-04-09T06:32:10;96345.13;;;5.83;89.60
10978;BME280;5542;48.272;10.794;2023-04-09T06:34:36;96354.06;;;5.89;87.19
10978;BME280;5542;48.272;10.794;2023-04-09T06:37:04;96347.75;;;5.83;87.48
10978;BME280;5542;48.272;10.794;2023-04-09T06:39:31;96356.03;;;6.02;89.01
10978;BME280;5542;48.272;10.794;2023-04-09T06:41:57;96347.53;;;6.14;86.94
10978;BME280;5542;48.272;10.794;2023-04-09T06:44:24;96359.19;;;6.33;83.73
10978;BME280;5542;48.272;10.794;2023-04-09T06:46:51;96363.03;;;6.37;82.70
10978;BME280;5542;48.272;10.794;2023-04-09T06:49:17;96359.72;;;6.29;83.09
10978;BME280;5542;48.272;10.794;2023-04-09T06:51:44;96367.31;;;6.24;83.03
10978;BME280;5542;48.272;10.794;2023-04-09T06:54:12;96362.84;;;6.03;83.08
10978;BME280;5542;48.272;10.794;2023-04-09T06:56:38;96369.16;;;5.79;83.90
10978;BME280;5542;48.272;10.794;2023-04-09T06:59:05;96365.84;;;5.85;84.59
10978;BME280;5542;48.272;10.794;2023-04-09T07:01:32;96363.78;;;5.95;84.51
10978;BME280;5542;48.272;10.794;2023-04-09T07:03:59;96366.75;;;5.77;86.27
10978;BME280;5542;48.272;10.794;2023-04-09T07:06:26;96371.88;;;5.85;86.40
10978;BME280;5542;48.272;10.794;2023-04-09T07:08:52;96366.41;;;5.95;86.09
10978;BME280;5542;48.272;10.794;2023-04-09T07:11:21;96362.22;;;6.37;84.59
10978;BME280;5542;48.272;10.794;2023-04-09T07:13:47;96352.22;;;6.62;83.54
10978;BME280;5542;48.272;10.794;2023-04-09T07:16:14;96363.50;;;6.69;82.41
10978;BME280;5542;48.272;10.794;2023-04-09T07:18:40;96352.47;;;7.23;83.62
10978;BME280;5542;48.272;10.794;2023-04-09T07:21:07;96353.13;;;7.73;81.88
10978;BME280;5542;48.272;10.794;2023-04-09T07:23:34;96347.22;;;8.06;77.56
10978;BME280;5542;48.272;10.794;2023-04-09T07:26:02;96351.31;;;8.35;76.12
10978;BME280;5542;48.272;10.794;2023-04-09T07:28:30;96353.63;;;8.78;68.00
10978;BME280;5542;48.272;10.794;2023-04-09T07:30:57;96354.81;;;9.02;67.09
10978;BME280;5542;48.272;10.794;2023-04-09T07:33:25;96352.16;;;9.48;68.25
10978;BME280;5542;48.272;10.794;2023-04-09T07:35:52;96357.56;;;10.18;63.32
10978;BME280;5542;48.272;10.794;2023-04-09T07:38:18;96349.47;;;10.26;58.70
10978;BME280;5542;48.272;10.794;2023-04-09T07:40:45;96351.47;;;9.79;59.63
10978;BME280;5542;48.272;10.794;2023-04-09T07:43:11;96354.75;;;9.61;58.94
10978;BME280;5542;48.272;10.794;2023-04-09T07:45:39;96361.59;;;9.62;61.21
10978;BME280;5542;48.272;10.794;2023-04-09T07:48:06;96356.25;;;9.95;57.79
10978;BME280;5542;48.272;10.794;2023-04-09T07:50:33;96362.41;;;9.63;58.31
10978;BME280;5542;48.272;10.794;2023-04-09T07:53:00;96365.66;;;9.65;61.07
10978;BME280;5542;48.272;10.794;2023-04-09T07:55:27;96369.44;;;9.75;60.11
10978;BME280;5542;48.272;10.794;2023-04-09T07:57:53;96370.88;;;9.78;58.41
10978;BME280;5542;48.272;10.794;2023-04-09T08:00:20;96369.06;;;9.59;58.93
10978;BME280;5542;48.272;10.794;2023-04-09T08:02:48;96363.00;;;9.78;58.51
10978;BME280;5542;48.272;10.794;2023-04-09T08:05:15;96356.44;;;9.94;56.39
10978;BME280;5542;48.272;10.794;2023-04-09T08:07:41;96368.88;;;9.54;57.51
10978;BME280;5542;48.272;10.794;2023-04-09T08:10:08;96365.13;;;9.23;58.18
10978;BME280;5542;48.272;10.794;2023-04-09T08:12:39;96371.38;;;9.15;60.37
10978;BME280;5542;48.272;10.794;2023-04-09T08:15:06;96371.16;;;9.23;60.07
10978;BME280;5542;48.272;10.794;2023-04-09T08:17:33;96365.28;;;10.06;58.51
10978;BME280;5542;48.272;10.794;2023-04-09T08:20:02;96371.72;;;9.65;57.39
10978;BME280;5542;48.272;10.794;2023-04-09T08:22:29;96369.19;;;9.90;58.18
10978;BME280;5542;48.272;10.794;2023-04-09T08:24:56;96371.38;;;10.00;56.48
10978;BME280;5542;48.272;10.794;2023-04-09T08:27:23;96366.41;;;10.23;54.04
10978;BME280;5542;48.272;10.794;2023-04-09T08:29:50;96371.66;;;10.37;54.51
10978;BME280;5542;48.272;10.794;2023-04-09T08:32:17;96373.75;;;10.15;56.02
10978;BME280;5542;48.272;10.794;2023-04-09T08:34:43;96369.91;;;10.17;56.10
10978;BME280;5542;48.272;10.794;2023-04-09T08:37:11;96377.69;;;9.92;55.70
10978;BME280;5542;48.272;10.794;2023-04-09T08:39:38;96373.44;;;9.91;56.04
10978;BME280;5542;48.272;10.794;2023-04-09T08:42:05;96363.44;;;10.13;54.74
10978;BME280;5542;48.272;10.794;2023-04-09T08:44:32;96359.53;;;10.29;54.28
10978;BME280;5542;48.272;10.794;2023-04-09T08:46:59;96356.03;;;10.73;53.94
10978;BME280;5542;48.272;10.794;2023-04-09T08:49:25;96360.34;;;11.18;54.54
10978;BME280;5542;48.272;10.794;2023-04-09T08:51:52;96356.84;;;11.24;54.00
10978;BME280;5542;48.272;10.794;2023-04-09T08:54:20;96351.53;;;11.31;51.63
10978;BME280;5542;48.272;10.794;2023-04-09T08:56:48;96361.69;;;11.02;49.94
10978;BME280;5542;48.272;10.794;2023-04-09T08:59:14;96358.19;;;10.83;50.87
10978;BME280;5542;48.272;10.794;2023-04-09T09:01:43;96358.06;;;10.71;51.45
10978;BME280;5542;48.272;10.794;2023-04-09T09:04:11;96352.53;;;10.55;51.24
10978;BME280;5542;48.272;10.794;2023-04-09T09:06:38;96347.13;;;10.74;52.31
10978;BME280;5542;48.272;10.794;2023-04-09T09:09:06;96353.53;;;10.85;49.04
10978;BME280;5542;48.272;10.794;2023-04-09T09:11:36;96354.94;;;10.88;49.99
10978;BME280;5542;48.272;10.794;2023-04-09T09:14:04;96357.09;;;10.66;51.17
10978;BME280;5542;48.272;10.794;2023-04-09T09:16:33;96353.69;;;10.90;49.64
10978;BME280;5542;48.272;10.794;2023-04-09T09:19:00;96350.16;;;11.03;49.80
10978;BME280;5542;48.272;10.794;2023-04-09T09:21:28;96347.75;;;11.20;50.20
10978;BME280;5542;48.272;10.794;2023-04-09T09:23:55;96343.97;;;11.16;47.39
10978;BME280;5542;48.272;10.794;2023-04-09T09:26:23;96347.66;;;11.08;49.54
10978;BME280;5542;48.272;10.794;2023-04-09T09:28:51;96341.22;;;11.47;48.02
10978;BME280;5542;48.272;10.794;2023-04-09T09:31:19;96337.13;;;11.51;47.45
10978;BME280;5542;48.272;10.794;2023-04-09T09:33:47;96342.63;;;11.25;47.52
10978;BME280;5542;48.272;10.794;2023-04-09T09:36:15;96340.91;;;11.37;48.50
10978;BME280;5542;48.272;10.794;2023-04-09T09:38:52;96340.22;;;12.03;47.87
10978;BME280;5542;48.272;10.794;2023-04-09T09:41:19;96331.66;;;12.20;46.35
10978;BME280;5542;48.272;10.794;2023-04-09T09:43:45;96329.25;;;12.48;43.75
10978;BME280;5542;48.272;10.794;2023-04-09T09:46:14;96336.84;;;12.56;44.51
10978;BME280;5542;48.272;10.794;2023-04-09T09:48:42;96339.31;;;11.91;44.03
10978;BME280;5542;48.272;10.794;2023-04-09T09:51:12;96344.84;;;11.90;46.78
10978;BME280;5542;48.272;10.794;2023-04-09T09:53:43;96342.41;;;11.70;45.73
10978;BME280;5542;48.272;10.794;2023-04-09T09:56:14;96345.91;;;11.45;45.76
10978;BME280;5542;48.272;10.794;2023-04-09T09:58:44;96343.63;;;11.67;47.05
10978;BME280;5542;48.272;10.794;2023-04-09T10:01:18;96338.75;;;11.89;45.82
10978;BME280;5542;48.272;10.794;2023-04-09T10:03:48;96333.69;;;11.69;45.15
10978;BME280;5542;48.272;10.794;2023-04-09T10:06:17;96340.34;;;11.72;46.69
10978;BME280;5542;48.272;10.794;2023-04-09T10:08:44;96331.63;;;12.08;47.15
10978;BME280;5542;48.272;10.794;2023-04-09T10:11:14;96334.41;;;11.76;43.78
10978;BME280;5542;48.272;10.794;2023-04-09T10:13:44;96329.38;;;11.75;44.20
10978;BME280;5542;48.272;10.794;2023-04-09T10:16:12;96328.72;;;11.98;45.35
10978;BME280;5542;48.272;10.794;2023-04-09T10:18:40;96329.53;;;11.98;46.88
10978;BME280;5542;48.272;10.794;2023-04-09T10:21:13;96319.06;;;11.92;44.39
10978;BME280;5542;48.272;10.794;2023-04-09T10:23:41;96315.06;;;12.01;45.72
10978;BME280;5542;48.272;10.794;2023-04-09T10:26:08;96323.06;;;12.13;45.37
10978;BME280;5542;48.272;10.794;2023-04-09T10:28:36;96315.72;;;12.15;44.32
10978;BME280;5542;48.272;10.794;2023-04-09T10:31:03;96318.81;;;12.12;44.40
10978;BME280;5542;48.272;10.794;2023-04-09T10:33:30;96317.28;;;11.67;45.28
10978;BME280;5542;48.272;10.794;2023-04-09T10:36:02;96320.41;;;11.39;44.71
10978;BME280;5542;48.272;10.794;2023-04-09T10:38:34;96320.41;;;11.39;47.70
10978;BME280;5542;48.272;10.794;2023-04-09T10:41:11;96321.69;;;11.73;44.90
10978;BME280;5542;48.272;10.794;2023-04-09T10:43:39;96320.97;;;11.85;44.84
10978;BME280;5542;48.272;10.794;2023-04-09T10:46:24;96318.47;;;11.90;44.78
10978;BME280;5542;48.272;10.794;2023-04-09T10:49:09;96317.50;;;11.29;45.43
10978;BME280;5542;48.272;10.794;2023-04-09T10:51:38;96313.69;;;11.43;45.39
10978;BME280;5542;48.272;10.794;2023-04-09T10:54:38;96320.88;;;11.36;46.23
10978;BME280;5542;48.272;10.794;2023-04-09T10:57:16;96315.69;;;11.48;45.37
10978;BME280;5542;48.272;10.794;2023-04-09T10:59:45;96312.88;;;11.24;43.37
10978;BME280;5542;48.272;10.794;2023-04-09T11:05:25;96321.16;;;11.28;44.84
10978;BME280;5542;48.272;10.794;2023-04-09T11:08:00;96319.53;;;10.84;46.64
10978;BME280;5542;48.272;10.794;2023-04-09T11:10:28;96334.06;;;10.86;47.48
10978;BME280;5542;48.272;10.794;2023-04-09T11:12:55;96331.59;;;11.16;46.36
10978;BME280;5542;48.272;10.794;2023-04-09T11:15:22;96322.91;;;11.16;46.48
10978;BME280;5542;48.272;10.794;2023-04-09T11:17:49;96331.72;;;10.78;45.95
10978;BME280;5542;48.272;10.794;2023-04-09T11:20:19;96326.47;;;10.78;45.41
10978;BME280;5542;48.272;10.794;2023-04-09T11:22:46;96319.91;;;10.87;45.40
10978;BME280;5542;48.272;10.794;2023-04-09T11:25:18;96324.38;;;11.30;45.93
10978;BME280;5542;48.272;10.794;2023-04-09T11:27:45;96321.69;;;11.37;44.90
10978;BME280;5542;48.272;10.794;2023-04-09T11:30:12;96320.00;;;11.42;46.51
10978;BME280;5542;48.272;10.794;2023-04-09T11:32:39;96319.78;;;11.62;46.72
10978;BME280;5542;48.272;10.794;2023-04-09T11:35:10;96307.00;;;11.84;44.91
10978;BME280;5542;48.272;10.794;2023-04-09T11:37:38;96309.75;;;11.71;44.29
10978;BME280;5542;48.272;10.794;2023-04-09T11:40:06;96315.03;;;11.71;45.15
10978;BME280;5542;48.272;10.794;2023-04-09T11:42:34;96312.47;;;11.64;44.81
10978;BME280;5542;48.272;10.794;2023-04-09T11:45:03;96302.31;;;11.49;43.88
10978;BME280;5542;48.272;10.794;2023-04-09T11:47:30;96309.31;;;11.37;44.90
10978;BME280;5542;48.272;10.794;2023-04-09T11:49:57;96310.13;;;11.38;44.12
10978;BME280;5542;48.272;10.794;2023-04-09T11:52:24;96314.69;;;11.49;44.45
10978;BME280;5542;48.272;10.794;2023-04-09T11:54:52;96310.34;;;11.54;44.10
10978;BME280;5542;48.272;10.794;2023-04-09T11:57:18;96309.09;;;11.94;43.75
10978;BME280;5542;48.272;10.794;2023-04-09T11:59:47;96304.09;;;12.34;42.91
10978;BME280;5542;48.272;10.794;2023-04-09T12:02:16;96299.09;;;12.44;41.53
10978;BME280;5542;48.272;10.794;2023-04-09T12:04:48;96305.50;;;12.48;41.60
10978;BME280;5542;48.272;10.794;2023-04-09T12:07:15;96309.91;;;12.54;42.38
10978;BME280;5542;48.272;10.794;2023-04-09T12:09:46;96301.84;;;12.49;41.24
10978;BME280;5542;48.272;10.794;2023-04-09T12:12:17;96300.22;;;12.48;40.59
10978;BME280;5542;48.272;10.794;2023-04-09T12:14:44;96297.94;;;12.10;40.48
10978;BME280;5542;48.272;10.794;2023-04-09T12:17:12;96309.06;;;11.82;40.64
10978;BME280;5542;48.272;10.794;2023-04-09T12:19:39;96307.78;;;11.66;41.40
10978;BME280;5542;48.272;10.794;2023-04-09T12:22:06;96322.19;;;11.45;41.12
10978;BME280;5542;48.272;10.794;2023-04-09T12:24:32;96313.69;;;11.25;42.33
10978;BME280;5542;48.272;10.794;2023-04-09T12:26:59;96313.88;;;11.05;42.32
10978;BME280;5542;48.272;10.794;2023-04-09T12:29:26;96312.03;;;11.06;43.67
10978;BME280;5542;48.272;10.794;2023-04-09T12:31:54;96318.59;;;11.21;43.78
10978;BME280;5542;48.272;10.794;2023-04-09T12:34:22;96307.19;;;11.27;42.97
10978;BME280;5542;48.272;10.794;2023-04-09T12:36:48;96302.88;;;11.33;43.38
10978;BME280;5542;48.272;10.794;2023-04-09T12:39:15;96300.97;;;11.22;43.30
10978;BME280;5542;48.272;10.794;2023-04-09T12:41:41;96303.00;;;11.20;43.24
10978;BME280;5542;48.272;10.794;2023-04-09T12:44:09;96309.09;;;11.20;44.18
10978;BME280;5542;48.272;10.794;2023-04-09T12:46:35;96308.28;;;10.95;43.03
10978;BME280;5542;48.272;10.794;2023-04-09T12:49:02;96319.09;;;10.87;45.77
10978;BME280;5542;48.272;10.794;2023-04-09T12:51:31;96313.47;;;10.83;43.51
10978;BME280;5542;48.272;10.794;2023-04-09T12:53:57;96319.63;;;10.95;43.77
10978;BME280;5542;48.272;10.794;2023-04-09T12:56:24;96319.13;;;11.05;44.19
10978;BME280;5542;48.272;10.794;2023-04-09T12:58:51;96304.91;;;11.13;43.37
10978;BME280;5542;48.272;10.794;2023-04-09T13:01:18;96303.72;;;11.09;44.43
10978;BME280;5542;48.272;10.794;2023-04-09T13:03:44;96306.91;;;11.36;46.74
10978;BME280;5542;48.272;10.794;2023-04-09T13:06:11;96298.94;;;11.61;43.00
10978;BME280;5542;48.272;10.794;2023-04-09T13:08:39;96296.06;;;11.62;43.02
10978;BME280;5542;48.272;10.794;2023-04-09T13:11:06;96299.28;;;11.64;43.15
10978;BME280;5542;48.272;10.794;2023-04-09T13:13:34;96299.00;;;11.54;42.74